createdAt,value
2023-04-02T00:05:50.217Z,2.75
2023-04-02T00:15:57.633Z,2.00
2023-04-02T00:25:59.138Z,1.90
2023-04-02T00:36:01.038Z,2.22
2023-04-02T00:46:10.696Z,2.47
2023-04-02T00:56:17.805Z,3.10
2023-04-02T01:06:20.348Z,2.33
2023-04-02T01:16:42.344Z,3.28
2023-04-02T01:26:52.991Z,2.30
2023-04-02T01:37:22.273Z,1.43
2023-04-02T01:47:27.386Z,1.73
2023-04-02T01:57:29.397Z,2.23
2023-04-02T02:07:30.946Z,2.83
2023-04-02T02:17:34.630Z,1.52
2023-04-02T02:27:48.109Z,1.30
2023-04-02T02:37:59.635Z,2.23
2023-04-02T02:48:02.711Z,1.73
2023-04-02T02:58:11.903Z,1.90
2023-04-02T03:08:53.620Z,1.80
2023-04-02T03:19:15.705Z,1.47
2023-04-02T03:29:27.826Z,2.28
2023-04-02T03:39:41.362Z,2.20
2023-04-02T03:49:56.414Z,3.03
2023-04-02T04:00:32.520Z,2.88
2023-04-02T04:10:35.062Z,3.10
2023-04-02T04:20:46.081Z,2.67
2023-04-02T04:31:01.882Z,3.35
2023-04-02T04:41:16.334Z,3.35
2023-04-02T04:51:29.181Z,4.60
2023-04-02T05:01:41.235Z,4.23
2023-04-02T05:11:47.880Z,5.07
2023-04-02T05:21:59.879Z,4.80
2023-04-02T05:32:16.023Z,4.43
2023-04-02T05:42:24.786Z,3.67
2023-04-02T05:52:31.567Z,4.47
2023-04-02T06:02:37.879Z,2.73
2023-04-02T06:12:45.228Z,2.75
2023-04-02T06:22:55.351Z,2.38
2023-04-02T06:32:57.316Z,2.03
2023-04-02T06:43:03.116Z,1.53
2023-04-02T06:53:09.682Z,2.17
2023-04-02T07:03:23.767Z,2.10
2023-04-02T07:13:25.827Z,2.53
2023-04-02T07:23:27.305Z,2.05
2023-04-02T07:33:30.432Z,1.80
2023-04-02T07:43:32.143Z,1.87
2023-04-02T07:53:35.769Z,2.50
2023-04-02T08:03:37.293Z,3.17
2023-04-02T08:13:39.190Z,2.27
2023-04-02T08:23:40.542Z,3.00
2023-04-02T08:33:42.047Z,2.60
2023-04-02T08:44:09.391Z,2.60
2023-04-02T08:54:43.539Z,2.53
2023-04-02T09:04:45.196Z,3.10
2023-04-02T09:15:04.678Z,2.43
2023-04-02T09:25:14.050Z,1.40
2023-04-02T09:35:26.875Z,2.53
2023-04-02T09:45:28.698Z,2.75
2023-04-02T09:55:31.095Z,1.83
2023-04-02T10:05:40.750Z,3.40
2023-04-02T10:15:53.539Z,2.15
2023-04-02T10:25:57.952Z,1.27
2023-04-02T10:36:08.711Z,1.90
2023-04-02T10:46:28.632Z,1.70
2023-04-02T10:56:44.058Z,2.67
2023-04-02T11:07:11.089Z,2.30
2023-04-02T11:17:16.678Z,2.30
2023-04-02T11:27:26.469Z,2.58
2023-04-02T11:37:36.513Z,2.50
2023-04-02T11:47:37.918Z,2.93
2023-04-02T11:58:00.264Z,2.92
2023-04-02T12:08:28.114Z,2.27
2023-04-02T12:18:29.716Z,1.90
2023-04-02T12:28:33.698Z,1.58
2023-04-02T12:39:15.947Z,1.23
2023-04-02T12:49:38.972Z,1.47
2023-04-02T12:59:41.786Z,1.58
2023-04-02T13:09:49.008Z,2.15
2023-04-02T13:19:50.974Z,1.73
2023-04-02T13:29:52.341Z,2.57
2023-04-02T13:39:53.868Z,2.55
2023-04-02T13:49:55.308Z,4.07
2023-04-02T13:59:56.654Z,2.33
2023-04-02T14:10:14.840Z,2.10
2023-04-02T14:20:54.379Z,1.77
2023-04-02T14:31:14.296Z,1.73
2023-04-02T14:41:34.170Z,2.55
2023-04-02T14:51:44.180Z,1.97
2023-04-02T15:01:49.818Z,1.87
2023-04-02T15:11:54.838Z,1.23
2023-04-02T15:21:59.065Z,2.70
2023-04-02T15:32:29.682Z,1.07
2023-04-02T15:42:38.992Z,1.75
2023-04-02T15:53:13.766Z,1.20
2023-04-02T16:03:29.834Z,2.07
2023-04-02T16:13:34.060Z,1.60
2023-04-02T16:23:38.322Z,1.75
2023-04-02T16:34:09.150Z,1.40
2023-04-02T16:44:55.864Z,1.30
2023-04-02T16:55:03.751Z,1.65
2023-04-02T17:05:32.522Z,1.43
2023-04-02T17:15:39.324Z,1.57
2023-04-02T17:26:09.210Z,1.17
2023-04-02T17:36:29.895Z,1.20
2023-04-02T17:46:51.704Z,1.87
2023-04-02T17:56:58.762Z,1.70
2023-04-02T18:07:18.217Z,2.22
2023-04-02T18:17:48.415Z,2.50
2023-04-02T18:27:58.749Z,2.80
2023-04-02T18:38:23.595Z,2.40
2023-04-02T18:49:03.677Z,2.57
2023-04-02T18:59:36.146Z,3.40
2023-04-02T19:09:42.721Z,3.72
2023-04-02T19:19:56.997Z,2.83
2023-04-02T19:29:58.392Z,4.20
2023-04-02T19:40:32.456Z,3.87
2023-04-02T19:50:33.928Z,3.40
2023-04-02T20:00:35.539Z,4.30
2023-04-02T20:10:37.564Z,4.33
2023-04-02T20:20:39.542Z,4.80
2023-04-02T20:30:41.062Z,3.90
2023-04-02T20:40:43.647Z,3.20
2023-04-02T20:50:46.223Z,3.58
2023-04-02T21:00:47.672Z,4.13
2023-04-02T21:10:49.169Z,3.60
2023-04-02T21:21:04.954Z,3.87
2023-04-02T21:31:13.307Z,4.38
2023-04-02T21:41:26.823Z,5.47
2023-04-02T21:51:30.555Z,5.50
2023-04-02T22:01:36.759Z,5.50
2023-04-02T22:11:41.871Z,4.47
2023-04-02T22:21:44.217Z,4.50
2023-04-02T22:31:45.807Z,4.28
2023-04-02T22:41:47.196Z,4.70
2023-04-02T22:51:48.781Z,4.40
2023-04-02T23:01:50.303Z,5.10
2023-04-02T23:11:51.794Z,5.97
2023-04-02T23:21:53.321Z,5.70
2023-04-02T23:31:54.796Z,6.00
2023-04-02T23:41:57.067Z,5.70
2023-04-02T23:51:58.452Z,11.27
